AirNav   Everest Fuels
 
 966 users online  

OI61 Mount Carmel Health Heliport
Columbus, Ohio, USA

GOING TO COLUMBUS?


FAA INFORMATION EFFECTIVE 31 JANUARY 2019

Location

FAA Identifier: OI61
Lat/Long: 39-57-28.9000N / 083-01-17.7400W
39-57.481667N / 083-01.295667W
39.9580278 / -83.0215944
(estimated)
Elevation: 710 ft. / 216 m (estimated)
Variation: 05W (1990)
From city: 1 mile SW of COLUMBUS, OH
Time zone: UTC -5 (UTC -4 during Daylight Saving Time)
Zip code: 43222

Heliport Operations

Heliport use: Private use, MEDICAL USE.
Activation date: 03/1993
Control tower: no
ARTCC: INDIANAPOLIS CENTER
FSS: DAYTON FLIGHT SERVICE STATION
Attendance: UNATNDD
Wind indicator: yes
Segmented circle: no
Lights: FOR PERIMETER LGTS CALL 614-225-5874.

Heliport Communications

WX AWOS-3 at TZR (6 nm SW): 135.925 (614-878-1722)
WX ASOS at CMH (6 nm E): 124.6 (614-338-4083)
WX ASOS at OSU (8 nm N): PHONE 614-451-2465
WX AWOS-3 at LCK (10 nm SE): PHONE 614-492-2441
WX AWOS-3 at DLZ (20 nm N): 119.025 (740-203-1878)

Nearby radio navigation aids

VOR radial/distance  VOR name  Freq  Var
APEr246/23.0APPLETON VORTAC116.7006W
XUBr001/(25.9)YELLOW BUD VOR112.5005W
SGHr083/38.6SPRINGFIELD VOR/DME113.2004W
BUDr182/(39.6)BUCKEYE VOR109.8005W

 
NDB name  Hdg/Dist  Freq  Var  ID
PICKL305/9.737607WLC .-.. -.-.
FULER136/10.751505WOS --- ...
BOUTN050/11.823005WBU -... ..-
COBBS007/12.925307WDD -.. -..
COURT HOUSE045/27.441406WCSS -.-. ... ...
CLARK COUNTY086/35.234104WCCJ -.-. -.-. .---

Heliport Services

Runway Information

Helipad H1

Dimensions: 65 x 65 ft. / 20 x 20 m
Surface: concrete
Runway edge lights: PERIMETER LGTS.
Latitude: 39-57.481667N
Longitude: 083-01.295667W
Elevation: 710.0 ft.
Traffic pattern: leftleft

Heliport Ownership and Management from official FAA records

Ownership: Privately-owned
Owner: MOUNT CARMEL HEALTH
793 W. STATE ST
COLUMBUS, OH 43222
Phone 614-225-5874
Manager: ROBERT JOHNSTON
6150 EAST BROAD ST.
COLUMBUS, OH 43213
Phone 614-546-4596

Additional Remarks

A52-H1 30 FT POLE 45 FT SW; 29 FT POLE 65 FT N; 43 FT POLE 135 FT W; & 50 FT TWR 200 FT S.

Instrument Procedures

There are no published instrument procedures at OI61.

Some nearby airports with instrument procedures:

KTZR - Bolton Field Airport (6 nm SW)
KCMH - John Glenn Columbus International Airport (6 nm E)
KOSU - Ohio State University Airport (8 nm N)
KLCK - Rickenbacker International Airport (10 nm SE)
KDLZ - Delaware Municipal Airport - Jim Moore Field (20 nm N)
 
Loc | Ops | Rwys | IFR | FBO | Links
Com | Nav | Svcs | Stats | Notes
Area around OI61 (Mount Carmel Health Heliport)
 
Road maps at: MapQuest Bing Google
 
Aerial photo
No photo
 
Sectional chart

 
Airport distance calculator
Flying to Mount Carmel Health Heliport? Find the distance to fly.

From to OI61

Sunrise and sunset
Times for 16-Feb-2019
 Local
(UTC-5)
 Zulu
(UTC)
Morning civil twilight06:5711:57
Sunrise07:2512:25
Sunset18:0823:08
Evening civil twilight18:3523:35

Current date and time
Zulu (UTC)  16-Feb-2019 18:52:46
Local (UTC-5)  16-Feb-2019 13:52:46
 
METAR
KTZR 
7nm SW 
161745Z 03007KT 10SM OVC022 M03/M08 A3005
KCMH 
7nm E 
161751Z 03008KT 10SM OVC021 M03/M08 A3005 RMK AO2 SLP185 T10281078 11028 21061 58001
KOSU 
8nm N 
161753Z 05008KT 10SM OVC019 M03/M08 A3004 RMK AO2 SLP185 T10281078 11028 21061 58003
KLCK 
10nm SE 
161835Z AUTO 02009KT 10SM OVC022 M02/M08 A3004 RMK AO2 T10191079
KDLZ 
20nm N 
161836Z AUTO 06005KT 10SM OVC018 M03/M07 A3006 RMK AO2
TAF
KCMH 
7nm E 
161740Z 1618/1718 02010KT P6SM OVC020 FM162100 02010KT P6SM SCT250 FM170600 06008KT P6SM BKN100 FM171200 08010KT P6SM VCSH OVC050 FM171500 09010KT P6SM -FZRA OVC025
KLCK 
10nm SE 
161740Z 1618/1718 04010KT P6SM OVC020 FM162100 04010KT P6SM SCT250 FM170600 06008KT P6SM BKN100 FM171200 08010KT P6SM VCSH OVC050 FM171500 09010KT P6SM -FZRA OVC025
NOTAMs
Click for the latest NOTAMs
NOTAMs are issued by the DoD/FAA and will open in a separate window not controlled by AirNav.

 

 
 

Would you like to see your business listed on this page?

 If your business provides an interesting product or service to pilots, flight crews, aircraft, or users of the Mount Carmel Health Heliport, you should consider listing it here.  To start the listing process, click on the button below
 
Add a business
 

Other Pages about Mount Carmel Health Heliport

Update a link
 
Copyright © AirNav, LLC. All rights reserved. Privacy Policy  Contact